Time;durP1;ratioP1;P1;durP2;ratioP2;P2;SDS_P1;SDS_P2;PMS_P1;PMS_P2;Temp;Humidity;BMP_temperature;BMP_pressure;BME280_temperature;BME280_humidity;BME280_pressure;Samples;Min_cycle;Max_cycle;Signal;HPM_P1;HPM_P2
2022/04/12 00:01:04;;;;;;;8.50;2.22;;;;;;;;;;4986149;28;20030;-80
2022/04/12 00:03:31;;;;;;;4.13;2.42;;;;;;;;;;4995543;28;20027;-80
2022/04/12 00:05:57;;;;;;;3.03;1.63;;;;;;;;;;4997980;28;20038;-80
2022/04/12 00:08:23;;;;;;;4.82;2.25;;;;;;;;;;4995733;28;20433;-79
2022/04/12 00:10:49;;;;;;;6.03;2.55;;;;;;;;;;4990760;28;20094;-81
2022/04/12 00:13:17;;;;;;;5.63;2.47;;;;;;;;;;4996754;28;20034;-79
2022/04/12 00:15:44;;;;;;;6.20;2.50;;;;;;;;;;4983388;28;20509;-80
2022/04/12 00:20:54;;;;;;;5.63;2.47;;;;;;;;;;4995581;28;20040;-80
2022/04/12 00:23:20;;;;;;;2.55;1.70;;;;;;;;;;4997142;28;20104;-80
2022/04/12 00:25:46;;;;;;;7.93;2.15;;;;;;;;;;4997882;28;20068;-80
2022/04/12 00:28:13;;;;;;;7.13;3.45;;;;;;;;;;4998746;28;20036;-81
2022/04/12 00:30:40;;;;;;;3.60;1.95;;;;;;;;;;4989633;28;20023;-79
2022/04/12 00:33:06;;;;;;;4.55;2.20;;;;;;;;;;4992989;28;20038;-80
2022/04/12 00:35:32;;;;;;;9.27;2.78;;;;;;;;;;4994480;28;20117;-81
2022/04/12 00:37:58;;;;;;;6.30;1.98;;;;;;;;;;4993550;28;20089;-80
2022/04/12 00:40:24;;;;;;;6.60;2.75;;;;;;;;;;4993752;28;20105;-82
2022/04/12 00:42:51;;;;;;;3.85;2.17;;;;;;;;;;4994952;28;20072;-80
2022/04/12 00:45:17;;;;;;;4.75;1.95;;;;;;;;;;4994907;28;20061;-81
2022/04/12 00:47:43;;;;;;;4.47;2.25;;;;;;;;;;4999102;28;20414;-80
2022/04/12 00:50:10;;;;;;;6.47;2.85;;;;;;;;;;4996155;28;20034;-80
2022/04/12 00:52:42;;;;;;;3.80;2.35;;;;;;;;;;4995222;28;20026;-79
2022/04/12 00:55:08;;;;;;;3.72;2.50;;;;;;;;;;4996906;28;20036;-81
2022/04/12 00:57:34;;;;;;;3.13;1.60;;;;;;;;;;4996744;28;20041;-81
2022/04/12 01:00:01;;;;;;;3.10;2.10;;;;;;;;;;4995759;28;20576;-82
2022/04/12 01:02:27;;;;;;;5.13;1.95;;;;;;;;;;4997957;28;20022;-81
2022/04/12 01:04:53;;;;;;;4.57;2.17;;;;;;;;;;4993556;28;20023;-81
2022/04/12 01:07:19;;;;;;;3.85;2.33;;;;;;;;;;4992012;28;20368;-79
2022/04/12 01:09:45;;;;;;;5.38;2.00;;;;;;;;;;4993923;28;20034;-81
2022/04/12 01:12:11;;;;;;;6.32;2.20;;;;;;;;;;4995082;28;20042;-81
2022/04/12 01:14:38;;;;;;;5.72;2.95;;;;;;;;;;4998472;28;20034;-80
2022/04/12 01:17:07;;;;;;;4.68;2.53;;;;;;;;;;4993255;28;20033;-80
2022/04/12 01:19:34;;;;;;;2.97;2.10;;;;;;;;;;4997982;28;20478;-80
2022/04/12 01:22:07;;;;;;;4.43;2.20;;;;;;;;;;4987714;28;20057;-80
2022/04/12 01:24:34;;;;;;;4.78;2.33;;;;;;;;;;4996459;28;20026;-80
2022/04/12 01:27:00;;;;;;;6.32;2.22;;;;;;;;;;4997465;28;20066;-81
2022/04/12 01:29:30;;;;;;;9.43;2.33;;;2.70;99.90;;;;;;4998574;28;20019;-80
2022/04/12 01:31:56;;;;;;;7.60;2.45;;;;;;;;;;4993854;28;20042;-81
2022/04/12 01:34:22;;;;;;;5.35;2.13;;;;;;;;;;4997812;28;20025;-80
2022/04/12 01:36:48;;;;;;;4.68;2.97;;;;;;;;;;4995417;28;20031;-80
2022/04/12 01:39:14;;;;;;;4.38;2.53;;;;;;;;;;4998286;28;20060;-80
2022/04/12 01:41:40;;;;;;;4.97;2.53;;;;;;;;;;4991236;28;20026;-80
2022/04/12 01:44:06;;;;;;;3.65;2.17;;;;;;;;;;4997428;28;20026;-80
2022/04/12 01:46:32;;;;;;;6.93;2.20;;;;;;;;;;4997208;28;20030;-79
2022/04/12 01:48:58;;;;;;;4.25;2.70;;;;;;;;;;4997725;28;20041;-80
2022/04/12 01:51:24;;;;;;;3.83;1.95;;;;;;;;;;4997241;28;20031;-81
2022/04/12 01:53:50;;;;;;;5.55;2.22;;;;;;;;;;4995724;28;20026;-81
2022/04/12 01:56:16;;;;;;;5.15;1.98;;;;;;;;;;4989594;28;20027;-82
2022/04/12 01:58:42;;;;;;;5.07;2.42;;;;;;;;;;4993644;28;20398;-80
2022/04/12 02:01:09;;;;;;;5.90;2.72;;;;;;;;;;4992298;28;20559;-81
2022/04/12 02:03:35;;;;;;;4.35;2.50;;;;;;;;;;4991454;28;20019;-81
2022/04/12 02:06:01;;;;;;;4.13;1.75;;;;;;;;;;4995989;28;20368;-81
2022/04/12 02:08:27;;;;;;;4.95;2.70;;;;;;;;;;4994782;28;20027;-81
2022/04/12 02:10:53;;;;;;;3.78;1.90;;;;;;;;;;4997197;28;20088;-81
2022/04/12 02:13:19;;;;;;;5.68;2.90;;;;;;;;;;4992059;28;20030;-80
2022/04/12 02:15:44;;;;;;;3.33;1.77;;;;;;;;;;4996970;28;20520;-80
2022/04/12 02:18:10;;;;;;;5.25;2.88;;;;;;;;;;4992225;28;20438;-79
2022/04/12 02:20:36;;;;;;;5.03;2.38;;;;;;;;;;5000938;28;20034;-80
2022/04/12 02:23:02;;;;;;;10.50;2.08;;;;;;;;;;4999568;28;20410;-81
2022/04/12 02:25:28;;;;;;;2.85;1.77;;;;;;;;;;4996984;28;20042;-81
2022/04/12 02:27:54;;;;;;;3.85;2.42;;;;;;;;;;4999732;28;20022;-81
2022/04/12 02:30:20;;;;;;;5.78;2.92;;;;;;;;;;4995100;28;20510;-81
2022/04/12 02:32:46;;;;;;;5.30;2.83;;;;;;;;;;5000550;28;20018;-81
2022/04/12 02:35:12;;;;;;;3.67;1.75;;;;;;;;;;4997494;28;20046;-80
2022/04/12 02:37:38;;;;;;;5.72;2.17;;;1.90;99.90;;;;;;4992568;28;20034;-80
2022/04/12 02:40:04;;;;;;;6.18;2.28;;;;;;;;;;4999488;28;20034;-80
2022/04/12 02:42:30;;;;;;;7.85;3.03;;;;;;;;;;4993826;28;20027;-80
2022/04/12 02:44:56;;;;;;;4.13;2.28;;;;;;;;;;4998320;28;20062;-80
2022/04/12 02:47:28;;;;;;;5.50;2.13;;;;;;;;;;4997494;28;20031;-81
2022/04/12 02:49:54;;;;;;;4.47;2.20;;;;;;;;;;4994923;28;20075;-80
2022/04/12 02:52:20;;;;;;;5.28;2.53;;;;;;;;;;4999297;28;20038;-80
2022/04/12 02:54:45;;;;;;;4.68;2.47;;;;;;;;;;4991449;28;20045;-80
2022/04/12 02:57:11;;;;;;;4.10;2.78;;;;;;;;;;4994991;28;20035;-80
2022/04/12 02:59:37;;;;;;;3.50;1.58;;;;;;;;;;4997761;28;20111;-80
2022/04/12 03:02:03;;;;;;;7.93;4.32;;;;;;;;;;4999360;28;20025;-81
2022/04/12 03:04:29;;;;;;;6.35;2.65;;;;;;;;;;4995638;28;20163;-79
2022/04/12 03:06:55;;;;;;;5.85;2.22;;;;;;;;;;4995866;28;20062;-80
2022/04/12 03:09:22;;;;;;;5.85;2.08;;;;;;;;;;4992979;28;20023;-80
2022/04/12 03:11:48;;;;;;;5.57;2.88;;;;;;;;;;4995775;28;20042;-79
2022/04/12 03:14:14;;;;;;;8.05;2.78;;;;;;;;;;4991583;28;20049;-82
2022/04/12 03:16:42;;;;;;;5.07;2.25;;;;;;;;;;4992846;28;20023;-81
2022/04/12 03:19:08;;;;;;;4.03;2.80;;;;;;;;;;4991495;28;20030;-79
2022/04/12 03:21:34;;;;;;;7.00;2.47;;;;;;;;;;4997905;28;20028;-81
2022/04/12 03:24:00;;;;;;;8.25;3.40;;;;;;;;;;4990301;28;20069;-80
2022/04/12 03:26:26;;;;;;;8.35;3.30;;;;;;;;;;4989164;28;21466;-79
2022/04/12 03:28:52;;;;;;;6.38;3.42;;;;;;;;;;4995543;28;20022;-79
2022/04/12 03:31:18;;;;;;;5.40;2.58;;;;;;;;;;4995042;28;20080;-81
2022/04/12 03:33:46;;;;;;;6.35;3.25;;;;;;;;;;4991938;28;20022;-79
2022/04/12 03:36:12;;;;;;;4.43;2.38;;;;;;;;;;4987089;28;20052;-80
2022/04/12 03:38:47;;;;;;;5.30;3.47;;;;;;;;;;4987748;28;20482;-80
2022/04/12 03:41:13;;;;;;;4.47;2.28;;;;;;;;;;4996359;28;20026;-80
2022/04/12 03:43:39;;;;;;;7.15;3.28;;;;;;;;;;4999211;28;20041;-79
2022/04/12 03:46:05;;;;;;;6.28;2.83;;;;;;;;;;4987770;28;20038;-80
2022/04/12 03:48:31;;;;;;;5.70;2.60;;;;;;;;;;4996897;28;20030;-80
2022/04/12 03:50:57;;;;;;;9.27;4.07;;;;;;;;;;4991318;28;20601;-82
2022/04/12 03:53:23;;;;;;;5.75;3.03;;;;;;;;;;4994974;28;20394;-82
2022/04/12 03:55:49;;;;;;;9.45;2.42;;;;;;;;;;4996982;28;20057;-79
2022/04/12 03:58:19;;;;;;;4.78;2.40;;;2.80;99.90;;;;;;4999007;28;20400;-80
2022/04/12 04:00:45;;;;;;;4.13;3.13;;;;;;;;;;4994024;28;20383;-79
2022/04/12 04:03:11;;;;;;;5.05;2.28;;;;;;;;;;4993097;28;20085;-81
2022/04/12 04:05:37;;;;;;;7.30;3.30;;;;;;;;;;4993062;28;20038;-81
2022/04/12 04:08:03;;;;;;;5.32;3.33;;;;;;;;;;4999876;28;20022;-79
2022/04/12 04:10:29;;;;;;;7.75;3.67;;;;;;;;;;4988860;28;20037;-80
2022/04/12 04:12:55;;;;;;;5.55;3.33;;;;;;;;;;4983998;28;20030;-79
2022/04/12 04:15:21;;;;;;;6.63;3.92;;;;;;;;;;4984153;28;20506;-78
2022/04/12 04:17:48;;;;;;;13.90;3.55;;;;;;;;;;4989311;28;20085;-78
2022/04/12 04:20:15;;;;;;;7.40;3.38;;;;;;;;;;4980907;28;20026;-78
2022/04/12 04:22:41;;;;;;;10.15;3.55;;;;;;;;;;4991885;28;20490;-79
2022/04/12 04:25:08;;;;;;;5.43;2.90;;;;;;;;;;4988001;28;20030;-78
2022/04/12 04:27:34;;;;;;;7.22;2.72;;;;;;;;;;4985752;28;20030;-77
2022/04/12 04:30:00;;;;;;;6.97;3.45;;;;;;;;;;4984648;28;20035;-77
2022/04/12 04:32:29;;;;;;;4.85;2.63;;;;;;;;;;4986410;28;20375;-80
2022/04/12 04:34:55;;;;;;;11.20;3.50;;;;;;;;;;4993910;28;20552;-80
2022/04/12 04:37:21;;;;;;;6.70;2.55;;;;;;;;;;4989120;28;20035;-80
2022/04/12 04:39:47;;;;;;;6.00;3.92;;;;;;;;;;4996121;28;20061;-80
2022/04/12 04:42:13;;;;;;;3.92;2.17;;;;;;;;;;4994629;28;20030;-80
2022/04/12 04:44:39;;;;;;;3.55;2.53;;;;;;;;;;4985567;28;20022;-78
2022/04/12 04:47:05;;;;;;;11.93;3.88;;;;;;;;;;4983994;28;20077;-78
2022/04/12 04:49:31;;;;;;;7.32;3.17;;;;;;;;;;4990016;28;20038;-79
2022/04/12 04:51:57;;;;;;;6.75;3.17;;;;;;;;;;4987576;28;20030;-79
2022/04/12 04:54:23;;;;;;;6.38;3.85;;;;;;;;;;4983626;28;20034;-79
2022/04/12 04:56:49;;;;;;;6.00;3.05;;;;;;;;;;4989544;28;20060;-78
2022/04/12 04:59:15;;;;;;;7.65;4.00;;;;;;;;;;4988994;28;20498;-78
2022/04/12 05:01:43;;;;;;;7.55;3.50;;;2.90;99.90;;;;;;4987002;28;20089;-78
2022/04/12 05:04:09;;;;;;;4.55;2.22;;;;;;;;;;4984460;28;20014;-80
2022/04/12 05:06:35;;;;;;;4.55;2.33;;;;;;;;;;4985326;28;20801;-78
2022/04/12 05:09:00;;;;;;;6.05;3.20;;;;;;;;;;4983455;28;20679;-79
2022/04/12 05:11:26;;;;;;;6.32;3.58;;;;;;;;;;4982325;28;20030;-80
2022/04/12 05:13:52;;;;;;;4.85;2.58;;;;;;;;;;4985777;28;20036;-82
2022/04/12 05:16:18;;;;;;;8.20;4.32;;;;;;;;;;4992382;28;20038;-82
2022/04/12 05:18:44;;;;;;;8.75;3.53;;;;;;;;;;4991157;28;20026;-79
2022/04/12 05:21:10;;;;;;;4.78;2.83;;;;;;;;;;4988010;28;20034;-79
2022/04/12 05:23:36;;;;;;;26.35;12.65;;;;;;;;;;4990688;28;20030;-79
2022/04/12 05:26:02;;;;;;;21.20;10.70;;;;;;;;;;4983041;28;20045;-81
2022/04/12 05:28:28;;;;;;;10.18;4.05;;;;;;;;;;4995342;28;20074;-82
2022/04/12 05:30:55;;;;;;;9.10;3.90;;;;;;;;;;4994013;28;20045;-81
2022/04/12 05:33:21;;;;;;;7.35;4.13;;;;;;;;;;4990874;28;20029;-79
2022/04/12 05:35:47;;;;;;;8.02;4.30;;;;;;;;;;4991280;28;20022;-79
2022/04/12 05:38:13;;;;;;;6.43;3.72;;;;;;;;;;4995412;28;20088;-79
2022/04/12 05:40:39;;;;;;;11.60;4.10;;;;;;;;;;4995030;28;20026;-79
2022/04/12 05:43:07;;;;;;;7.18;3.78;;;;;;;;;;4992982;28;20486;-80
2022/04/12 05:45:33;;;;;;;7.75;3.60;;;;;;;;;;4988067;28;20045;-83
2022/04/12 05:48:00;;;;;;;9.68;4.05;;;;;;;;;;4991824;28;20490;-80
2022/04/12 05:50:26;;;;;;;7.68;3.30;;;;;;;;;;4995433;28;20062;-79
2022/04/12 05:52:52;;;;;;;8.27;3.47;;;;;;;;;;4994506;28;20046;-80
2022/04/12 05:55:19;;;;;;;8.23;3.10;;;;;;;;;;4995543;28;20030;-79
2022/04/12 05:57:54;;;;;;;10.93;3.67;;;;;;;;;;4993700;28;20171;-80
2022/04/12 06:00:21;;;;;;;4.85;2.58;;;;;;;;;;4987777;28;20030;-80
2022/04/12 06:02:48;;;;;;;6.82;3.00;;;;;;;;;;4989217;28;20031;-80
2022/04/12 06:05:14;;;;;;;5.72;2.67;;;;;;;;;;4982888;28;20137;-81
2022/04/12 06:07:41;;;;;;;9.73;4.10;;;;;;;;;;4993280;28;20038;-79
2022/04/12 06:10:07;;;;;;;10.68;3.28;;;;;;;;;;4991241;28;20027;-82
2022/04/12 06:12:33;;;;;;;8.63;3.08;;;;;;;;;;4984741;28;20638;-82
2022/04/12 06:14:59;;;;;;;4.47;3.08;;;;;;;;;;4990197;28;20153;-80
2022/04/12 06:17:29;;;;;;;8.32;3.55;;;;;;;;;;4989926;28;20034;-81
2022/04/12 06:20:00;;;;;;;10.48;3.72;;;;;;;;;;4992385;28;20097;-80
2022/04/12 06:22:26;;;;;;;5.97;3.30;;;;;;;;;;4989299;28;20095;-78
2022/04/12 06:24:52;;;;;;;6.03;3.50;;;;;;;;;;4986838;28;20042;-81
2022/04/12 06:27:18;;;;;;;5.07;2.78;;;;;;;;;;4986630;28;20030;-79
2022/04/12 06:29:43;;;;;;;15.60;3.95;;;;;;;;;;4987804;28;20031;-79
2022/04/12 06:32:09;;;;;;;7.20;3.92;;;;;;;;;;4987917;28;20041;-78
2022/04/12 06:34:35;;;;;;;7.82;3.42;;;;;;;;;;4981318;28;20049;-78
2022/04/12 06:37:01;;;;;;;7.50;3.08;;;;;;;;;;4987194;28;20036;-78
2022/04/12 06:39:28;;;;;;;8.13;3.85;;;;;;;;;;4984321;28;20030;-80
2022/04/12 06:41:54;;;;;;;7.47;2.92;;;;;;;;;;4989442;28;20121;-79
2022/04/12 06:44:19;;;;;;;8.95;3.95;;;6.80;99.90;;;;;;4985831;28;20120;-77
2022/04/12 06:46:45;;;;;;;7.57;3.80;;;;;;;;;;4987637;28;20524;-80
2022/04/12 06:49:11;;;;;;;14.25;3.15;;;;;;;;;;4990379;28;20030;-79
2022/04/12 06:51:37;;;;;;;6.72;3.03;;;;;;;;;;4983466;28;20037;-80
2022/04/12 06:54:03;;;;;;;6.93;3.08;;;;;;;;;;4989659;28;20410;-79
2022/04/12 06:56:29;;;;;;;4.75;2.60;;;;;;;;;;4987666;28;20642;-80
2022/04/12 06:58:55;;;;;;;6.85;2.65;;;;;;;;;;4988362;28;20054;-80
2022/04/12 07:01:21;;;;;;;7.28;3.55;;;;;;;;;;4992115;28;20034;-82
2022/04/12 07:03:47;;;;;;;6.78;3.30;;;;;;;;;;4990872;28;20048;-82
2022/04/12 07:06:13;;;;;;;5.28;3.53;;;;;;;;;;4989663;28;20093;-80
2022/04/12 07:08:40;;;;;;;6.78;3.40;;;;;;;;;;4992634;28;20022;-80
2022/04/12 07:11:06;;;;;;;8.70;3.38;;;;;;;;;;4990123;28;20707;-80
2022/04/12 07:13:32;;;;;;;5.35;3.00;;;;;;;;;;4986174;28;20137;-83
2022/04/12 07:15:58;;;;;;;6.22;3.30;;;;;;;;;;4992887;28;20289;-82
2022/04/12 07:18:24;;;;;;;6.75;3.30;;;;;;;;;;4993417;28;20396;-81
2022/04/12 07:20:50;;;;;;;12.68;3.20;;;;;;;;;;4999139;28;20034;-79
2022/04/12 07:23:16;;;;;;;7.70;2.40;;;;;;;;;;4995228;28;20038;-79
2022/04/12 07:25:42;;;;;;;6.93;2.70;;;;;;;;;;4994431;28;20042;-80
2022/04/12 07:28:08;;;;;;;8.48;3.67;;;;;;;;;;4995141;28;20034;-79
2022/04/12 07:30:33;;;;;;;4.45;2.45;;;;;;;;;;4992098;28;20028;-81
2022/04/12 07:32:59;;;;;;;4.90;2.15;;;;;;;;;;4992590;28;20125;-81
2022/04/12 07:35:27;;;;;;;4.82;2.47;;;;;;;;;;4987660;28;20081;-80
2022/04/12 07:37:53;;;;;;;5.07;1.48;;;;;;;;;;4991693;28;20640;-80
2022/04/12 07:40:19;;;;;;;4.03;2.30;;;;;;;;;;4987476;28;20676;-79
2022/04/12 07:42:45;;;;;;;4.70;2.00;;;;;;;;;;4985540;28;20037;-80
2022/04/12 07:45:11;;;;;;;4.47;2.03;;;;;;;;;;4985082;28;20062;-79
2022/04/12 07:47:37;;;;;;;4.53;1.85;;;;;;;;;;4993298;28;20026;-80
2022/04/12 07:50:04;;;;;;;4.32;1.92;;;;;;;;;;4993150;28;20520;-81
2022/04/12 07:52:30;;;;;;;3.10;2.03;;;;;;;;;;4995544;28;20093;-79
2022/04/12 07:54:56;;;;;;;7.22;1.75;;;;;;;;;;4984412;28;20018;-81
2022/04/12 07:57:22;;;;;;;4.20;1.75;;;;;;;;;;4989126;28;20065;-79
2022/04/12 07:59:48;;;;;;;5.70;1.52;;;;;;;;;;4996702;28;20164;-80
2022/04/12 08:02:14;;;;;;;6.20;2.10;;;;;;;;;;4995393;28;20198;-80
2022/04/12 08:04:42;;;;;;;6.30;1.88;;;;;;;;;;4993267;28;20027;-81
2022/04/12 08:07:08;;;;;;;3.95;1.33;;;;;;;;;;4995052;28;20395;-81
2022/04/12 08:09:34;;;;;;;4.70;1.70;;;;;;;;;;4990642;28;20084;-81
2022/04/12 08:12:00;;;;;;;4.55;2.05;;;;;;;;;;4991434;28;20058;-82
2022/04/12 08:14:26;;;;;;;3.90;1.90;;;;;;;;;;4996506;28;20030;-82
2022/04/12 08:16:52;;;;;;;3.80;1.98;;;;;;;;;;4998811;28;20026;-81
2022/04/12 08:19:18;;;;;;;4.00;1.80;;;;;;;;;;4993555;28;20055;-81
2022/04/12 08:21:44;;;;;;;3.35;1.50;;;;;;;;;;4996111;28;20045;-82
2022/04/12 08:24:10;;;;;;;5.50;2.15;;;;;;;;;;4996347;28;20034;-80
2022/04/12 08:26:37;;;;;;;3.20;1.15;;;;;;;;;;4993033;28;20057;-80
2022/04/12 08:29:03;;;;;;;4.70;1.67;;;;;;;;;;4989287;28;20019;-80
2022/04/12 08:31:29;;;;;;;4.57;1.38;;;;;;;;;;4996690;28;20548;-79
2022/04/12 08:33:55;;;;;;;3.38;1.50;;;;;;;;;;4994074;28;20060;-80
2022/04/12 08:36:22;;;;;;;9.05;2.28;;;;;;;;;;4995978;28;20054;-79
2022/04/12 08:38:49;;;;;;;9.48;1.92;;;;;;;;;;4994742;28;20026;-80
2022/04/12 08:41:15;;;;;;;4.32;1.55;;;;;;;;;;4992394;28;20489;-79
2022/04/12 08:43:42;;;;;;;6.40;1.80;;;;;;;;;;4993944;28;20397;-79
2022/04/12 08:46:09;;;;;;;2.22;1.30;;;;;;;;;;4995306;28;20058;-79
2022/04/12 08:48:35;;;;;;;4.68;1.63;;;;;;;;;;4988170;28;20126;-80
2022/04/12 08:51:02;;;;;;;2.92;1.40;;;;;;;;;;4997478;28;20046;-80
2022/04/12 08:53:28;;;;;;;3.35;1.52;;;;;;;;;;4992560;28;21784;-80
2022/04/12 08:55:55;;;;;;;2.55;1.02;;;;;;;;;;4991004;28;20421;-81
2022/04/12 08:58:21;;;;;;;2.13;1.23;;;;;;;;;;4990163;28;20584;-81
2022/04/12 09:00:47;;;;;;;5.57;1.50;;;;;;;;;;4997480;28;20033;-81
2022/04/12 09:03:16;;;;;;;1.77;0.85;;;;;;;;;;4995292;28;20041;-80
2022/04/12 09:05:43;;;;;;;3.15;0.73;;;;;;;;;;4994701;28;20042;-83
2022/04/12 09:08:24;;;;;;;2.50;1.40;;;;;;;;;;4993057;28;20032;-82
2022/04/12 09:10:55;;;;;;;3.20;1.42;;;;;;;;;;4998813;28;20068;-79
2022/04/12 09:13:21;;;;;;;2.13;1.15;;;;;;;;;;4991859;28;20022;-81
2022/04/12 09:15:47;;;;;;;2.85;1.15;;;;;;;;;;4990844;28;20026;-80
2022/04/12 09:18:13;;;;;;;2.47;1.00;;;;;;;;;;4995714;28;20026;-79
2022/04/12 09:20:42;;;;;;;4.70;1.25;;;;;;;;;;4995383;28;20030;-80
2022/04/12 09:23:15;;;;;;;4.57;1.50;;;;;;;;;;4997939;28;20061;-82
2022/04/12 09:25:52;;;;;;;4.95;1.35;;;;;;;;;;4987393;28;20062;-79
2022/04/12 09:28:19;;;;;;;2.35;0.95;;;;;;;;;;4995737;28;20034;-81
2022/04/12 09:30:45;;;;;;;3.15;1.10;;;;;;;;;;4992388;28;20042;-80
2022/04/12 09:33:11;;;;;;;4.30;1.88;;;;;;;;;;4993144;28;20034;-80
2022/04/12 09:35:38;;;;;;;3.05;1.40;;;;;;;;;;4988196;28;20032;-79
2022/04/12 09:38:04;;;;;;;2.13;1.23;;;;;;;;;;4990259;28;20042;-80
2022/04/12 09:40:30;;;;;;;2.65;1.17;;;;;;;;;;4992029;28;20109;-79
2022/04/12 09:43:02;;;;;;;3.65;1.75;;;;;;;;;;4996209;28;20041;-82
2022/04/12 09:45:30;;;;;;;3.17;1.88;;;;;;;;;;4991242;28;20034;-79
2022/04/12 09:47:57;;;;;;;4.07;1.75;;;;;;;;;;4991365;28;20046;-80
2022/04/12 09:50:26;;;;;;;3.70;1.67;;;;;;;;;;4991587;28;20162;-80
2022/04/12 09:52:57;;;;;;;4.63;1.73;;;;;;;;;;4992983;28;20033;-80
2022/04/12 09:55:34;;;;;;;3.65;1.80;;;;;;;;;;4984269;28;20054;-79
2022/04/12 09:58:01;;;;;;;6.47;1.45;;;;;;;;;;4988090;28;20086;-78
2022/04/12 10:00:30;;;;;;;6.50;1.92;;;;;;;;;;4990363;28;20022;-79
2022/04/12 10:02:57;;;;;;;3.30;1.50;;;;;;;;;;4987145;28;20023;-80
2022/04/12 10:05:23;;;;;;;7.55;1.67;;;;;;;;;;4990020;28;20045;-79
2022/04/12 10:07:49;;;;;;;3.00;1.77;;;;;;;;;;4987896;28;20026;-79
2022/04/12 10:10:19;;;;;;;2.85;1.23;;;;;;;;;;4988239;28;20490;-79
2022/04/12 10:12:45;;;;;;;2.85;1.65;;;;;;;;;;4994028;28;20026;-79
2022/04/12 10:15:11;;;;;;;1.88;0.90;;;;;;;;;;4989738;28;20030;-78
2022/04/12 10:17:37;;;;;;;3.22;1.08;;;;;;;;;;4989075;28;20566;-79
2022/04/12 10:20:03;;;;;;;1.25;0.82;;;;;;;;;;4997139;28;20068;-79
2022/04/12 10:22:29;;;;;;;2.47;1.40;;;;;;;;;;4985460;28;20437;-80
2022/04/12 10:24:56;;;;;;;6.45;1.25;;;;;;;;;;4986593;28;20118;-77
2022/04/12 10:27:22;;;;;;;8.10;1.60;;;;;;;;;;4994711;28;20053;-79
2022/04/12 10:30:21;;;;;;;4.93;1.83;;;19.90;68.10;;;;;;4984905;28;20057;-78
2022/04/12 10:33:09;;;;;;;4.10;1.80;;;;;;;;;;4993454;28;20038;-79
2022/04/12 10:35:56;;;;;;;3.05;1.42;;;;;;;;;;4987556;28;20030;-78
2022/04/12 10:38:26;;;;;;;4.47;1.75;;;;;;;;;;4991289;28;20058;-79
2022/04/12 10:40:53;;;;;;;3.35;1.30;;;;;;;;;;4989700;28;20466;-78
2022/04/12 10:43:33;;;;;;;2.88;1.65;;;;;;;;;;4989498;28;20069;-78
2022/04/12 10:46:00;;;;;;;2.33;1.40;;;;;;;;;;4989130;28;20030;-78
2022/04/12 10:48:28;;;;;;;1.98;1.17;;;;;;;;;;4990850;28;20048;-78
2022/04/12 10:50:56;;;;;;;4.60;1.98;;;;;;;;;;4983341;28;20018;-78
2022/04/12 10:53:39;;;;;;;3.58;2.00;;;19.30;68.90;;;;;;4986562;28;20493;-79
2022/04/12 10:56:13;;;;;;;2.25;1.30;;;19.30;70.70;;;;;;4989459;28;20030;-78
2022/04/12 10:58:39;;;;;;;2.67;1.65;;;;;;;;;;4982803;28;20029;-78
2022/04/12 11:01:09;;;;;;;2.50;1.13;;;;;;;;;;4991740;28;20201;-80
2022/04/12 11:03:41;;;;;;;4.00;1.60;;;;;;;;;;4987977;28;20054;-79
2022/04/12 11:06:26;;;;;;;2.45;0.90;;;;;;;;;;4989680;28;20103;-78
2022/04/12 11:08:53;;;;;;;2.72;1.02;;;;;;;;;;4996217;28;20034;-78
2022/04/12 11:11:28;;;;;;;5.32;1.13;;;;;;;;;;4994933;28;20037;-79
2022/04/12 11:13:55;;;;;;;2.22;1.20;;;;;;;;;;4984203;28;20769;-77
2022/04/12 11:16:25;;;;;;;2.80;1.10;;;;;;;;;;4983878;28;20034;-79
2022/04/12 11:18:51;;;;;;;3.42;1.00;;;;;;;;;;4989820;28;20035;-78
2022/04/12 11:21:21;;;;;;;1.73;0.77;;;;;;;;;;4984172;28;20058;-79
2022/04/12 11:23:51;;;;;;;6.03;1.67;;;;;;;;;;4986534;28;20041;-78
2022/04/12 11:26:28;;;;;;;1.35;1.00;;;;;;;;;;4985972;28;20053;-78
2022/04/12 11:28:56;;;;;;;2.50;1.02;;;;;;;;;;4982889;28;20076;-78
2022/04/12 11:31:22;;;;;;;2.30;1.27;;;;;;;;;;4985620;28;20039;-79
2022/04/12 11:33:49;;;;;;;4.18;2.00;;;;;;;;;;4983917;28;20111;-78
2022/04/12 11:36:19;;;;;;;2.67;0.95;;;19.90;68.70;;;;;;4986349;28;20096;-78
2022/04/12 11:38:45;;;;;;;2.22;1.15;;;;;;;;;;4988181;28;20068;-78
2022/04/12 11:41:11;;;;;;;2.25;0.82;;;;;;;;;;4989108;28;20117;-79
2022/04/12 11:43:37;;;;;;;3.70;0.93;;;;;;;;;;4990739;28;20037;-79
2022/04/12 11:46:03;;;;;;;2.72;1.48;;;;;;;;;;4991248;28;20038;-79
2022/04/12 11:48:30;;;;;;;2.97;1.23;;;;;;;;;;4985881;28;20028;-80
2022/04/12 11:50:57;;;;;;;2.28;1.15;;;;;;;;;;4986738;28;20098;-79
2022/04/12 11:53:24;;;;;;;2.13;1.50;;;;;;;;;;4983670;28;20124;-78
2022/04/12 11:55:50;;;;;;;3.05;1.05;;;;;;;;;;4993880;28;20308;-80
2022/04/12 11:58:16;;;;;;;2.00;0.88;;;;;;;;;;4991641;28;20117;-79
2022/04/12 12:00:42;;;;;;;1.83;0.93;;;;;;;;;;4994178;28;20493;-78
2022/04/12 12:03:18;;;;;;;1.33;0.95;;;;;;;;;;4986301;28;20045;-79
2022/04/12 12:05:47;;;;;;;2.22;0.82;;;20.70;60.90;;;;;;4994116;28;20395;-79
2022/04/12 12:08:17;;;;;;;0.90;0.57;;;21.40;74.50;;;;;;4991322;28;20031;-79
2022/04/12 12:10:43;;;;;;;3.63;1.88;;;;;;;;;;4995897;28;20022;-79
2022/04/12 12:13:09;;;;;;;2.67;1.30;;;;;;;;;;4993724;28;20022;-80
2022/04/12 12:15:35;;;;;;;1.88;0.80;;;;;;;;;;4993944;28;20026;-80
2022/04/12 12:18:06;;;;;;;2.42;0.80;;;;;;;;;;4986745;28;20628;-80
2022/04/12 12:20:37;;;;;;;1.83;0.65;;;20.90;67.20;;;;;;4994328;28;20038;-79
2022/04/12 12:23:04;;;;;;;2.05;0.70;;;;;;;;;;4989674;28;20026;-79
2022/04/12 12:25:42;;;;;;;3.63;0.98;;;;;;;;;;4991263;28;20038;-79
2022/04/12 12:28:15;;;;;;;1.23;0.68;;;;;;;;;;4988843;28;20520;-79
2022/04/12 12:30:42;;;;;;;1.38;0.70;;;;;;;;;;4994474;28;20015;-78
2022/04/12 12:33:08;;;;;;;1.80;0.93;;;;;;;;;;4992277;28;20029;-79
2022/04/12 12:35:37;;;;;;;1.65;0.90;;;;;;;;;;4992938;28;20046;-79
2022/04/12 12:38:10;;;;;;;2.78;0.70;;;;;;;;;;4991419;28;20033;-79
2022/04/12 12:40:37;;;;;;;2.33;1.05;;;;;;;;;;4989617;28;20053;-79
2022/04/12 12:43:07;;;;;;;2.17;0.80;;;;;;;;;;4998744;28;20024;-79
2022/04/12 12:45:34;;;;;;;1.60;0.60;;;;;;;;;;4993455;28;20038;-80
2022/04/12 12:48:00;;;;;;;3.78;0.75;;;;;;;;;;4991092;28;20038;-79
2022/04/12 12:50:27;;;;;;;1.80;0.60;;;;;;;;;;4990837;28;20620;-79
2022/04/12 12:52:59;;;;;;;2.58;1.27;;;;;;;;;;4995616;28;20394;-78
2022/04/12 12:55:27;;;;;;;2.13;0.82;;;;;;;;;;4994944;28;20034;-79
2022/04/12 12:57:53;;;;;;;2.38;1.15;;;;;;;;;;4994786;28;20561;-80
2022/04/12 13:00:21;;;;;;;3.00;0.68;;;;;;;;;;4994762;28;20041;-79
2022/04/12 13:02:47;;;;;;;1.05;0.63;;;;;;;;;;4990995;28;20735;-79
2022/04/12 13:05:17;;;;;;;4.10;0.80;;;;;;;;;;4986073;28;20081;-80
2022/04/12 13:07:43;;;;;;;4.20;1.15;;;;;;;;;;4989290;28;20386;-79
2022/04/12 13:10:12;;;;;;;3.50;0.95;;;;;;;;;;4989057;28;20030;-80
2022/04/12 13:12:39;;;;;;;1.65;0.85;;;;;;;;;;4989457;28;20027;-79
2022/04/12 13:15:06;;;;;;;3.72;1.30;;;;;;;;;;4991346;28;20053;-79
2022/04/12 13:17:32;;;;;;;2.65;0.93;;;;;;;;;;4993911;28;20069;-80
2022/04/12 13:19:57;;;;;;;2.42;0.70;;;;;;;;;;4989995;28;20409;-79
2022/04/12 13:22:27;;;;;;;0.70;0.45;;;21.30;59.20;;;;;;4989676;28;20034;-79
2022/04/12 13:24:53;;;;;;;1.05;0.65;;;;;;;;;;4989872;28;20034;-79
2022/04/12 13:27:20;;;;;;;1.20;0.47;;;;;;;;;;4986334;28;20046;-80
2022/04/12 13:29:46;;;;;;;2.90;0.60;;;;;;;;;;4991241;28;20034;-79
2022/04/12 13:32:12;;;;;;;0.88;0.40;;;;;;;;;;4992100;28;20038;-80
2022/04/12 13:34:38;;;;;;;1.45;0.60;;;;;;;;;;4990937;28;20434;-79
2022/04/12 13:37:04;;;;;;;1.45;0.40;;;;;;;;;;4983098;28;20054;-80
2022/04/12 13:39:31;;;;;;;2.53;0.68;;;;;;;;;;4984029;28;20096;-77
2022/04/12 13:41:57;;;;;;;2.22;0.80;;;;;;;;;;4988562;28;20644;-80
2022/04/12 13:44:23;;;;;;;0.90;0.40;;;;;;;;;;4983554;28;20252;-81
2022/04/12 13:46:51;;;;;;;1.25;0.57;;;;;;;;;;4985681;28;20042;-78
2022/04/12 13:49:17;;;;;;;1.50;0.50;;;;;;;;;;4988580;28;20026;-79
2022/04/12 13:51:43;;;;;;;2.03;0.65;;;;;;;;;;4989437;28;20042;-80
2022/04/12 13:54:09;;;;;;;5.20;2.50;;;;;;;;;;4983351;28;20031;-80
2022/04/12 13:56:35;;;;;;;1.67;0.98;;;21.50;58.20;;;;;;4991733;28;20030;-80
2022/04/12 13:59:01;;;;;;;1.17;0.70;;;;;;;;;;4990228;28;20034;-79
2022/04/12 14:01:27;;;;;;;1.23;0.60;;;;;;;;;;4987963;28;20030;-80
2022/04/12 14:03:55;;;;;;;2.97;0.88;;;;;;;;;;4995353;28;20030;-80
2022/04/12 14:06:21;;;;;;;4.28;0.65;;;;;;;;;;4991529;28;20042;-80
2022/04/12 14:08:47;;;;;;;0.60;0.40;;;;;;;;;;4991073;28;20018;-81
2022/04/12 14:11:15;;;;;;;2.25;0.38;;;;;;;;;;4987521;28;20030;-79
2022/04/12 14:13:44;;;;;;;1.33;0.47;;;;;;;;;;4986916;28;20046;-80
2022/04/12 14:16:11;;;;;;;2.20;0.80;;;;;;;;;;4991415;28;20042;-80
2022/04/12 14:18:37;;;;;;;3.05;1.50;;;;;;;;;;4978110;28;21727;-79
2022/04/12 14:21:04;;;;;;;3.45;0.90;;;;;;;;;;4976291;28;20034;-80
2022/04/12 14:23:30;;;;;;;1.75;0.45;;;;;;;;;;4979164;28;20061;-80
2022/04/12 14:25:56;;;;;;;1.08;0.40;;;;;;;;;;4976206;28;20547;-80
2022/04/12 14:28:22;;;;;;;2.05;0.68;;;;;;;;;;4985722;28;20034;-81
2022/04/12 14:30:48;;;;;;;2.72;0.80;;;;;;;;;;4998537;28;20049;-83
2022/04/12 14:33:14;;;;;;;1.70;0.60;;;;;;;;;;4990624;28;20022;-80
2022/04/12 14:35:40;;;;;;;0.70;0.40;;;;;;;;;;4979747;28;20037;-80
2022/04/12 14:38:06;;;;;;;1.50;0.68;;;;;;;;;;4983152;28;20516;-80
2022/04/12 14:40:34;;;;;;;0.68;0.65;;;;;;;;;;4988363;28;20092;-80